Puyallup, WA

6:11 PM PST on December 17, 2017 (GMT -0800)
Pierce County - Thun Field

Weather History for KPLU - September, 2013

Change the Weather History Date:

Saturday, September 14, 2013

  Actual Average (KTCM) Record (KTCM)
Temperature  
Mean Temperature 62 °F -  
Max Temperature 68 °F 68 °F 93 °F (1979)
Min Temperature 55 °F 47 °F 37 °F (1992)
Degree Days  
Heating Degree Days 4    
Growing Degree Days 12 (Base 50)    
Moisture  
Dew Point 61 °F    
Average Humidity 96    
Maximum Humidity 100    
Minimum Humidity 83    
Precipitation  
Precipitation 0.00 in - - ()
Sea Level Pressure  
Sea Level Pressure 29.84 in    
Wind  
Wind Speed 0 mph (NNW)    
Max Wind Speed 5 mph    
Max Gust Speed -    
Visibility 6 miles    
Events      
Averages and records for this station are not official NWS values.
T = Trace of Precipitation, MM = Missing Value Source: NWS Daily Summary

Daily Weather History Graph

Daily Weather History Graph

Search for Another Location

Airport or City:

Trip Planner

Search our weather history database for the weather conditions in past years. The results will help you decide how hot, cold, wet, or windy it might be!

Date:

Astronomy

Sep. 14, 2013 Rise Set
Actual Time 6:45 AM PDT 7:22 PM PDT
Civil Twilight 6:15 AM PDT 7:52 PM PDT
Nautical Twilight 5:38 AM PDT 8:29 PM PDT
Astronomical Twilight 5:00 AM PDT 9:07 PM PDT
Moon 4:22 PM PDT (9/14) 1:07 AM PDT (9/14)
Length of Visible Light 13h 37m
Length of Day
12h 36m
Waxing Gibbous, 73% of the Moon is Illuminated
Sep 14
Waxing Gibbous
Sep 19
Full
Sep 26
Last Quarter
Oct 4
New
Oct 11
First Quarter

Hourly Weather History & Observations

Time (PDT) Temp. Dew Point Humidity Pressure Visibility Wind Dir Wind Speed Gust Speed Precip Events Conditions
12:15 AM 62.6 °F 62.6 °F 100% 29.90 in 10.0 mi Calm Calm - N/A   Unknown
12:35 AM 62.6 °F 60.8 °F 94% 29.90 in 10.0 mi Calm Calm - N/A   Unknown
12:55 AM 62.6 °F 60.8 °F 94% 29.90 in 10.0 mi Calm Calm - N/A   Unknown
1:15 AM 62.6 °F 60.8 °F 94% 29.89 in 10.0 mi Calm Calm - N/A   Unknown
1:35 AM 62.6 °F 62.6 °F 100% 29.89 in 9.0 mi Calm Calm - N/A   Unknown
1:55 AM 62.6 °F 62.6 °F 100% 29.89 in 8.0 mi Calm Calm - N/A   Unknown
2:15 AM 62.6 °F 62.6 °F 100% 29.89 in 8.0 mi Calm Calm - N/A   Unknown
2:35 AM 60.8 °F 60.8 °F 100% 29.89 in 7.0 mi Calm Calm - N/A   Unknown
2:55 AM 60.8 °F 60.8 °F 100% 29.88 in 5.0 mi Calm Calm - N/A   Mist
3:15 AM 60.8 °F 60.8 °F 100% 29.88 in 5.0 mi Calm Calm - N/A   Mist
3:35 AM 60.8 °F 60.8 °F 100% 29.88 in 4.0 mi Calm Calm - N/A   Mist
3:55 AM 60.8 °F 60.8 °F 100% 29.88 in 4.0 mi Calm Calm - N/A   Mist
4:15 AM 60.8 °F 60.8 °F 100% 29.88 in 3.0 mi Calm Calm - N/A   Mist
4:35 AM 60.8 °F 60.8 °F 100% 29.88 in 3.0 mi Calm Calm - N/A   Mist
4:55 AM 60.8 °F 60.8 °F 100% 29.88 in 3.0 mi Calm Calm - N/A   Mist
5:15 AM 60.8 °F 60.8 °F 100% 29.88 in 4.0 mi Calm Calm - N/A   Mist
5:35 AM 60.8 °F 60.8 °F 100% 29.88 in 6.0 mi Calm Calm - N/A   Mist
5:55 AM 60.8 °F 60.8 °F 100% 29.87 in 5.0 mi Calm Calm - N/A   Mist
6:15 AM 59.0 °F 59.0 °F 100% 29.87 in 5.0 mi Calm Calm - N/A   Mist
6:35 AM 59.0 °F 59.0 °F 100% 29.87 in 4.0 mi Calm Calm - N/A   Mist
6:55 AM 59.0 °F 59.0 °F 100% 29.88 in 5.0 mi Calm Calm - N/A   Mist
7:15 AM 59.0 °F 59.0 °F 100% 29.88 in 3.0 mi Calm Calm - N/A   Mist
7:35 AM 59.0 °F 59.0 °F 100% 29.88 in 3.0 mi Calm Calm - N/A   Mist
7:55 AM 59.0 °F 59.0 °F 100% 29.88 in 3.0 mi Calm Calm - N/A   Mist
8:15 AM 59.0 °F 59.0 °F 100% 29.88 in 3.0 mi Calm Calm - N/A   Mist
8:35 AM 59.0 °F 59.0 °F 100% 29.88 in 3.0 mi Calm Calm - N/A   Mist
8:55 AM 59.0 °F 59.0 °F 100% 29.88 in 3.0 mi Calm Calm - N/A   Mist
9:15 AM 59.0 °F 59.0 °F 100% 29.88 in 3.0 mi Calm Calm - N/A   Mist
9:35 AM 59.0 °F 59.0 °F 100% 29.88 in 4.0 mi Calm Calm - N/A   Mist
9:55 AM 60.8 °F 60.8 °F 100% 29.87 in 5.0 mi Calm Calm - N/A   Mist
10:15 AM 60.8 °F 60.8 °F 100% 29.87 in 4.0 mi Calm Calm - N/A   Mist
10:35 AM 62.6 °F 62.6 °F 100% 29.87 in 4.0 mi Calm Calm - N/A   Mist
10:55 AM 62.6 °F 62.6 °F 100% 29.87 in 3.0 mi Calm Calm - N/A   Mist
11:15 AM 62.6 °F 62.6 °F 100% 29.87 in 3.0 mi Calm Calm - N/A   Mist
11:35 AM 62.6 °F 62.6 °F 100% 29.87 in 4.0 mi Calm Calm - N/A   Mist
11:55 AM 62.6 °F 62.6 °F 100% 29.86 in 5.0 mi Calm Calm - N/A   Mist
12:15 PM 62.6 °F 62.6 °F 100% 29.86 in 5.0 mi Calm Calm - N/A   Mist
12:35 PM 62.6 °F 60.8 °F 94% 29.86 in 5.0 mi Calm Calm - N/A   Mist
12:55 PM 62.6 °F 62.6 °F 100% 29.85 in 6.0 mi Calm Calm - N/A   Mist
1:15 PM 64.4 °F 62.6 °F 94% 29.85 in 6.0 mi Calm Calm - N/A   Mist
1:35 PM 64.4 °F 60.8 °F 88% 29.84 in 7.0 mi Calm Calm - N/A   Unknown
1:55 PM 64.4 °F 60.8 °F 88% 29.84 in 7.0 mi Calm Calm - N/A   Unknown
2:15 PM 64.4 °F 62.6 °F 94% 29.83 in 8.0 mi Calm Calm - N/A   Unknown
2:35 PM 66.2 °F 62.6 °F 88% 29.83 in 8.0 mi Calm Calm - N/A   Unknown
2:55 PM 66.2 °F 62.6 °F 88% 29.83 in 8.0 mi Calm Calm - N/A   Unknown
3:15 PM 66.2 °F 62.6 °F 88% 29.82 in 8.0 mi Calm Calm - N/A   Unknown
3:35 PM 66.2 °F 62.6 °F 88% 29.82 in 9.0 mi North 3.5 mph - N/A   Unknown
3:55 PM 66.2 °F 62.6 °F 88% 29.81 in 8.0 mi NNW 4.6 mph - N/A   Unknown
4:15 PM 68.0 °F 62.6 °F 83% 29.81 in 9.0 mi Calm Calm - N/A   Unknown
4:35 PM 68.0 °F 62.6 °F 83% 29.80 in 10.0 mi Calm Calm - N/A   Unknown
4:55 PM 68.0 °F 62.6 °F 83% 29.80 in 10.0 mi NNW 4.6 mph - N/A   Unknown
5:15 PM 68.0 °F 62.6 °F 83% 29.79 in 10.0 mi Calm Calm - N/A   Unknown
5:35 PM 68.0 °F 62.6 °F 83% 29.78 in 10.0 mi Calm Calm - N/A   Unknown
5:55 PM 68.0 °F 62.6 °F 83% 29.78 in 10.0 mi Calm Calm - N/A   Unknown
6:15 PM 68.0 °F 62.6 °F 83% 29.78 in 10.0 mi Calm Calm - N/A   Unknown
6:35 PM 68.0 °F 62.6 °F 83% 29.77 in 10.0 mi Calm Calm - N/A   Unknown
6:55 PM 66.2 °F 62.6 °F 88% 29.77 in 10.0 mi Calm Calm - N/A   Unknown
7:15 PM 64.4 °F 62.6 °F 94% 29.77 in 10.0 mi Calm Calm - N/A   Unknown
7:35 PM 62.6 °F 62.6 °F 100% 29.77 in 9.0 mi Calm Calm - N/A   Unknown
7:55 PM 62.6 °F 62.6 °F 100% 29.77 in 10.0 mi Calm Calm - N/A   Unknown
8:15 PM 60.8 °F 60.8 °F 100% 29.77 in 8.0 mi Calm Calm - N/A   Unknown
8:35 PM 59.0 °F 59.0 °F 100% 29.77 in 5.0 mi Calm Calm - N/A   Mist
8:55 PM 59.0 °F 59.0 °F 100% 29.77 in 5.0 mi Calm Calm - N/A   Mist
9:15 PM 59.0 °F 59.0 °F 100% 29.77 in 5.0 mi Calm Calm - N/A   Mist
9:35 PM 59.0 °F 59.0 °F 100% 29.77 in 3.0 mi Calm Calm - N/A   Mist
9:55 PM 57.2 °F 57.2 °F 100% 29.77 in 0.8 mi Calm Calm - N/A   Mist
10:15 PM 57.2 °F 57.2 °F 100% 29.77 in 2.0 mi Calm Calm - N/A   Mist
10:35 PM 57.2 °F 57.2 °F 100% 29.77 in 2.5 mi Calm Calm - N/A   Mist
10:55 PM 57.2 °F 57.2 °F 100% 29.77 in 3.0 mi Calm Calm - N/A   Mist
11:15 PM 55.4 °F 55.4 °F 100% 29.76 in 1.8 mi Calm Calm - N/A   Mist
11:35 PM 55.4 °F 55.4 °F 100% 29.76 in 1.0 mi Calm Calm - N/A   Mist
11:55 PM 55.4 °F 55.4 °F 100% 29.75 in 0.8 mi Calm Calm - N/A   Mist